Time;durP1;ratioP1;P1;durP2;ratioP2;P2;SDS_P1;SDS_P2;PMS_P1;PMS_P2;Temp;Humidity;BMP_temperature;BMP_pressure;BME280_temperature;BME280_humidity;BME280_pressure;Samples;Min_cycle;Max_cycle;Signal;HPM_P1;HPM_P2
2021/04/17 00:01:12;;;;;;;1.93;1.03;;;27.20;73.30;;;;;;5005518;28;20202;-93
2021/04/17 00:03:43;;;;;;;2.53;1.40;;;27.40;72.10;;;;;;5001026;28;20202;-92
2021/04/17 00:06:14;;;;;;;2.90;1.20;;;27.20;72.60;;;;;;4999153;28;20317;-90
2021/04/17 00:08:46;;;;;;;2.60;1.33;;;27.20;72.20;;;;;;5002764;28;20218;-90
2021/04/17 00:11:20;;;;;;;2.00;1.20;;;27.10;74.30;;;;;;4999414;28;20238;-90
2021/04/17 00:13:51;;;;;;;1.70;1.33;;;27.20;73.80;;;;;;4997997;28;20599;-90
2021/04/17 00:16:22;;;;;;;5.17;1.50;;;26.90;74.00;;;;;;4997327;28;20229;-90
2021/04/17 00:18:53;;;;;;;1.73;1.40;;;26.80;75.70;;;;;;4999555;28;20289;-90
2021/04/17 00:21:24;;;;;;;3.03;1.43;;;26.70;75.10;;;;;;4996568;28;20206;-90
2021/04/17 00:23:55;;;;;;;2.97;1.33;;;26.60;75.20;;;;;;4997396;28;20206;-90
2021/04/17 00:26:25;;;;;;;3.63;1.60;;;26.50;76.30;;;;;;4999009;28;20225;-90
2021/04/17 00:28:56;;;;;;;3.50;1.57;;;26.70;75.30;;;;;;5002697;28;20283;-90
2021/04/17 00:31:28;;;;;;;4.00;1.40;;;26.80;77.10;;;;;;4997072;28;20610;-90
2021/04/17 00:33:59;;;;;;;4.33;1.60;;;26.70;76.90;;;;;;4996047;28;20571;-90
2021/04/17 00:36:30;;;;;;;3.73;1.57;;;26.80;76.00;;;;;;4999763;28;20222;-91
2021/04/17 00:39:02;;;;;;;3.23;1.53;;;26.70;76.50;;;;;;4997733;28;20229;-90
2021/04/17 00:41:32;;;;;;;5.20;1.63;;;26.50;76.40;;;;;;4998416;28;20206;-92
2021/04/17 00:44:02;;;;;;;1.93;1.50;;;26.40;76.00;;;;;;4997203;28;20687;-92
2021/04/17 00:46:33;;;;;;;2.40;1.30;;;26.30;75.90;;;;;;5009196;28;20262;-93
2021/04/17 00:49:03;;;;;;;2.57;1.40;;;26.20;76.50;;;;;;5016295;28;20245;-92
2021/04/17 00:51:34;;;;;;;2.27;1.23;;;26.20;77.70;;;;;;5013031;28;20214;-91
2021/04/17 00:54:07;;;;;;;2.30;1.60;;;26.20;77.30;;;;;;4966072;28;20341;-91
2021/04/17 00:56:38;;;;;;;5.93;1.30;;;26.20;77.00;;;;;;4978404;28;20246;-91
2021/04/17 00:59:08;;;;;;;3.63;1.40;;;26.20;77.50;;;;;;4978270;28;20274;-90
2021/04/17 01:01:39;;;;;;;2.90;1.37;;;26.30;76.00;;;;;;4979220;28;20211;-91
2021/04/17 01:04:20;;;;;;;4.97;1.50;;;26.20;77.10;;;;;;4980599;28;20359;-91
2021/04/17 01:06:55;;;;;;;4.47;1.43;;;26.20;75.80;;;;;;4985069;28;20210;-91
2021/04/17 01:09:33;;;;;;;5.50;1.70;;;26.30;77.20;;;;;;4978254;28;20707;-92
2021/04/17 01:12:07;;;;;;;4.47;1.37;;;26.70;76.80;;;;;;4976365;28;20206;-89
2021/04/17 01:14:38;;;;;;;6.27;1.50;;;27.10;74.50;;;;;;4976849;28;20243;-90
2021/04/17 01:17:11;;;;;;;2.60;1.20;;;27.40;74.10;;;;;;4978969;28;20314;-89
2021/04/17 01:19:59;;;;;;;1.23;1.00;;;27.70;71.60;;;;;;4977841;28;20207;-90
2021/04/17 01:22:30;;;;;;;2.00;1.10;;;27.50;68.40;;;;;;4975529;28;20574;-91
2021/04/17 01:25:10;;;;;;;5.93;1.20;;;27.40;69.10;;;;;;4976894;28;20369;-90
2021/04/17 01:27:42;;;;;;;2.87;1.50;;;27.20;67.80;;;;;;4975960;28;20282;-90
2021/04/17 01:30:15;;;;;;;2.37;1.10;;;26.90;67.80;;;;;;4976398;28;20278;-90
2021/04/17 01:32:48;;;;;;;1.93;0.90;;;26.70;67.00;;;;;;4977863;28;20690;-90
2021/04/17 01:35:22;;;;;;;3.17;1.00;;;26.20;66.50;;;;;;4979696;28;20254;-91
2021/04/17 01:38:16;;;;;;;1.77;1.17;;;25.80;67.60;;;;;;4975902;28;20212;-90
2021/04/17 01:40:50;;;;;;;2.13;1.10;;;25.60;68.30;;;;;;4973294;28;20815;-92
2021/04/17 01:43:24;;;;;;;3.97;1.00;;;25.50;69.30;;;;;;4964559;28;20227;-92
2021/04/17 01:45:58;;;;;;;4.77;1.07;;;25.30;68.30;;;;;;4957230;28;20215;-91
2021/04/17 01:48:30;;;;;;;5.13;1.20;;;25.00;69.10;;;;;;4957310;29;20636;-93
2021/04/17 01:51:03;;;;;;;4.13;1.23;;;24.90;69.60;;;;;;4956841;29;20215;-93
2021/04/17 01:53:38;;;;;;;1.93;1.13;;;24.70;71.70;;;;;;4955368;29;20211;-93
2021/04/17 01:56:10;;;;;;;1.97;1.10;;;24.60;72.10;;;;;;4956629;29;20215;-93
2021/04/17 01:58:44;;;;;;;1.20;1.10;;;24.30;72.90;;;;;;4957006;29;20215;-94
2021/04/17 02:01:16;;;;;;;1.53;1.17;;;24.00;72.30;;;;;;4956246;29;20247;-93
2021/04/17 02:03:47;;;;;;;2.50;1.07;;;23.70;73.00;;;;;;4956704;28;20211;-92
2021/04/17 02:06:18;;;;;;;2.33;1.37;;;23.40;73.20;;;;;;4958331;29;20216;-92
2021/04/17 02:08:49;;;;;;;3.07;1.70;;;23.30;72.80;;;;;;4961264;29;20620;-92
2021/04/17 02:11:20;;;;;;;3.17;1.50;;;23.20;72.30;;;;;;4961124;28;20246;-92
2021/04/17 02:13:53;;;;;;;2.63;1.37;;;23.00;71.90;;;;;;4963262;28;20235;-92
2021/04/17 02:16:29;;;;;;;2.07;1.40;;;22.80;71.00;;;;;;4960497;29;20214;-92
2021/04/17 02:19:02;;;;;;;3.20;1.30;;;22.50;71.50;;;;;;4959528;29;20207;-93
2021/04/17 02:21:38;;;;;;;4.00;1.47;;;22.30;72.10;;;;;;4962418;29;20896;-91
2021/04/17 02:24:11;;;;;;;2.00;1.37;;;22.10;73.20;;;;;;4961300;29;20235;-91
2021/04/17 02:26:43;;;;;;;2.10;1.40;;;22.00;73.00;;;;;;4961573;28;20223;-93
2021/04/17 02:29:15;;;;;;;2.50;1.50;;;21.80;73.90;;;;;;4961659;29;20211;-92
2021/04/17 02:31:48;;;;;;;3.23;2.23;;;21.70;74.00;;;;;;4959607;28;20611;-92
2021/04/17 02:34:20;;;;;;;3.47;1.77;;;21.50;74.00;;;;;;4961966;29;20242;-92
2021/04/17 02:36:54;;;;;;;2.80;1.70;;;21.40;75.10;;;;;;4962421;29;20660;-93
2021/04/17 02:39:24;;;;;;;2.50;1.47;;;21.20;74.60;;;;;;4963240;29;20212;-92
2021/04/17 02:41:57;;;;;;;1.93;1.40;;;21.10;75.10;;;;;;4963072;29;20218;-92
2021/04/17 02:44:31;;;;;;;2.17;1.70;;;20.90;77.70;;;;;;4982158;28;20202;-93
2021/04/17 02:47:04;;;;;;;5.33;1.70;;;20.80;78.80;;;;;;4982405;28;20270;-93
2021/04/17 02:49:41;;;;;;;2.97;1.30;;;20.60;78.90;;;;;;4987796;28;20203;-91
2021/04/17 02:52:12;;;;;;;2.33;1.57;;;20.50;77.80;;;;;;4993535;28;20656;-90
2021/04/17 02:54:45;;;;;;;1.93;1.60;;;20.30;77.90;;;;;;4989352;28;20266;-91
2021/04/17 02:57:17;;;;;;;1.50;1.40;;;20.20;78.50;;;;;;4984332;28;20214;-93
2021/04/17 02:59:49;;;;;;;2.23;1.53;;;20.10;80.10;;;;;;4987127;28;20222;-93
2021/04/17 03:02:22;;;;;;;4.90;1.50;;;19.90;81.90;;;;;;4986046;28;20211;-91
2021/04/17 03:04:52;;;;;;;3.33;1.70;;;19.70;83.40;;;;;;4987370;28;20207;-91
2021/04/17 03:07:24;;;;;;;3.10;1.50;;;19.50;84.20;;;;;;4983674;28;20226;-91
2021/04/17 03:09:55;;;;;;;2.77;1.33;;;19.30;85.90;;;;;;4985137;28;20282;-91
2021/04/17 03:12:25;;;;;;;3.00;1.60;;;19.10;86.30;;;;;;4988257;28;20237;-92
2021/04/17 03:14:58;;;;;;;2.93;1.40;;;18.90;86.20;;;;;;4999561;28;20215;-92
2021/04/17 03:17:28;;;;;;;3.00;1.53;;;18.70;86.30;;;;;;4999918;28;20195;-91
2021/04/17 03:19:59;;;;;;;3.63;1.40;;;18.60;87.80;;;;;;4991081;28;20231;-91
2021/04/17 03:22:30;;;;;;;4.63;1.70;;;18.50;88.80;;;;;;4989212;28;20207;-92
2021/04/17 03:25:02;;;;;;;2.80;1.70;;;18.40;86.20;;;;;;4984955;28;20230;-91
2021/04/17 03:27:33;;;;;;;2.37;1.33;;;18.30;87.80;;;;;;4983154;28;20616;-91
2021/04/17 03:30:07;;;;;;;4.10;1.43;;;18.30;89.10;;;;;;4982003;28;20235;-90
2021/04/17 03:32:38;;;;;;;2.03;1.40;;;18.10;89.20;;;;;;4980090;28;20207;-90
2021/04/17 03:35:12;;;;;;;4.10;1.60;;;18.00;89.20;;;;;;4980969;28;20230;-90
2021/04/17 03:37:43;;;;;;;6.23;2.13;;;18.00;87.20;;;;;;4983761;28;20219;-92
2021/04/17 03:40:15;;;;;;;4.30;1.90;;;18.00;87.70;;;;;;4983239;28;20258;-92
2021/04/17 03:42:46;;;;;;;4.70;1.80;;;18.00;86.90;;;;;;4983002;28;20759;-92
2021/04/17 03:45:20;;;;;;;3.10;1.67;;;17.90;87.30;;;;;;4984227;28;20215;-92
2021/04/17 03:47:50;;;;;;;4.60;1.90;;;17.80;89.50;;;;;;4971866;28;20200;-93
2021/04/17 03:50:23;;;;;;;4.03;1.93;;;17.60;90.70;;;;;;4963372;28;20215;-92
2021/04/17 03:52:55;;;;;;;4.10;2.10;;;17.50;91.30;;;;;;4964506;28;20214;-91
2021/04/17 03:55:26;;;;;;;4.33;1.73;;;17.30;92.30;;;;;;4968534;28;20270;-93
2021/04/17 03:57:56;;;;;;;3.00;1.90;;;17.10;92.60;;;;;;4969953;28;20230;-93
2021/04/17 04:00:30;;;;;;;7.00;2.13;;;17.00;92.60;;;;;;4969687;28;20207;-91
2021/04/17 04:03:02;;;;;;;7.07;2.30;;;16.80;93.30;;;;;;4971075;29;20235;-91
2021/04/17 04:05:36;;;;;;;2.97;1.90;;;16.70;92.80;;;;;;4971540;28;20288;-91
2021/04/17 04:08:06;;;;;;;2.33;1.87;;;16.60;92.80;;;;;;4967038;28;20211;-91
2021/04/17 04:10:39;;;;;;;3.43;2.20;;;16.50;93.10;;;;;;4964274;28;20208;-91
2021/04/17 04:13:09;;;;;;;3.80;2.00;;;16.40;93.10;;;;;;4963811;28;20695;-91
2021/04/17 04:15:42;;;;;;;7.43;1.93;;;16.40;92.70;;;;;;4964620;28;20231;-92
2021/04/17 04:18:14;;;;;;;3.83;2.67;;;16.30;92.90;;;;;;4966188;28;20204;-92
2021/04/17 04:20:46;;;;;;;7.30;2.90;;;16.30;92.50;;;;;;4962972;28;20212;-90
2021/04/17 04:23:17;;;;;;;3.53;2.60;;;16.20;93.70;;;;;;4962493;28;20207;-91
2021/04/17 04:25:48;;;;;;;5.50;3.97;;;16.10;93.40;;;;;;4963694;28;20258;-91
2021/04/17 04:28:27;;;;;;;8.03;4.90;;;16.00;94.40;;;;;;4964553;28;20216;-92
2021/04/17 04:31:01;;;;;;;7.63;4.67;;;15.90;94.20;;;;;;4966548;28;20230;-90
2021/04/17 04:33:39;;;;;;;9.87;4.60;;;15.80;94.30;;;;;;4963757;29;20237;-91
2021/04/17 04:36:11;;;;;;;9.83;4.47;;;15.70;94.90;;;;;;4964336;28;20319;-91
2021/04/17 04:38:44;;;;;;;5.53;3.90;;;15.60;95.40;;;;;;4965294;28;20239;-92
2021/04/17 04:41:17;;;;;;;12.30;4.10;;;15.50;95.00;;;;;;4964289;28;20220;-92
2021/04/17 04:43:52;;;;;;;11.70;4.57;;;15.40;95.20;;;;;;4963969;29;20210;-92
2021/04/17 04:46:28;;;;;;;10.30;4.80;;;15.40;95.40;;;;;;4964370;28;20271;-92
2021/04/17 04:48:59;;;;;;;13.27;4.70;;;15.30;95.40;;;;;;4964490;28;20203;-91
2021/04/17 04:51:33;;;;;;;15.63;4.23;;;15.20;96.40;;;;;;4963672;28;20949;-92
2021/04/17 04:54:05;;;;;;;18.33;4.23;;;15.10;95.80;;;;;;4965619;28;20265;-94
2021/04/17 04:56:41;;;;;;;9.70;3.93;;;15.10;96.20;;;;;;4965506;28;20208;-92
2021/04/17 04:59:15;;;;;;;12.97;4.00;;;15.00;96.40;;;;;;4965748;28;20216;-92
2021/04/17 05:01:49;;;;;;;9.37;3.50;;;15.00;97.00;;;;;;4965850;28;20216;-91
2021/04/17 05:04:21;;;;;;;9.50;3.20;;;15.00;97.10;;;;;;4967965;28;20221;-92
2021/04/17 05:07:00;;;;;;;13.23;3.50;;;14.90;97.10;;;;;;4967055;28;20577;-92
2021/04/17 05:09:32;;;;;;;5.30;2.53;;;14.90;97.10;;;;;;4966438;29;20207;-91
2021/04/17 05:12:06;;;;;;;12.03;2.60;;;14.80;97.10;;;;;;4962302;28;20279;-90
2021/04/17 05:14:38;;;;;;;11.60;2.90;;;14.80;97.40;;;;;;4962882;28;20240;-90
2021/04/17 05:17:10;;;;;;;7.20;2.60;;;14.70;97.80;;;;;;4963904;28;20220;-91
2021/04/17 05:19:41;;;;;;;9.53;2.87;;;14.70;98.00;;;;;;4962386;28;20215;-92
2021/04/17 05:22:14;;;;;;;12.60;3.30;;;14.60;98.30;;;;;;4963473;28;20231;-91
2021/04/17 05:24:52;;;;;;;12.03;3.80;;;14.60;98.70;;;;;;4962731;28;20234;-91
2021/04/17 05:27:25;;;;;;;10.60;2.93;;;14.50;98.50;;;;;;4964796;28;20207;-92
2021/04/17 05:29:56;;;;;;;10.93;3.03;;;14.50;98.80;;;;;;5004186;28;20241;-91
2021/04/17 05:32:40;;;;;;;4.37;2.37;;;14.50;98.70;;;;;;5006679;28;20209;-90
2021/04/17 05:35:13;;;;;;;5.80;2.33;;;14.60;98.70;;;;;;5004648;28;20296;-90
2021/04/17 05:37:46;;;;;;;7.33;2.30;;;14.70;98.70;;;;;;5006417;28;20235;-93
2021/04/17 05:40:19;;;;;;;7.43;2.87;;;14.70;98.00;;;;;;5017146;28;20323;-92
2021/04/17 05:42:52;;;;;;;4.93;2.17;;;14.80;99.20;;;;;;5016579;28;20202;-94
2021/04/17 05:45:28;;;;;;;5.57;1.93;;;14.70;99.30;;;;;;4997192;28;20221;-93
2021/04/17 05:48:03;;;;;;;6.00;2.00;;;14.70;99.30;;;;;;4988368;28;20210;-91
2021/04/17 05:50:35;;;;;;;4.37;1.87;;;14.60;99.60;;;;;;4985530;28;20293;-92
2021/04/17 05:53:06;;;;;;;8.60;2.43;;;14.50;99.80;;;;;;4982371;28;20246;-93
2021/04/17 05:55:39;;;;;;;4.93;2.13;;;14.50;99.90;;;;;;4984738;28;20856;-91
2021/04/17 05:58:12;;;;;;;3.90;1.87;;;14.40;99.90;;;;;;4984943;28;20214;-91
2021/04/17 06:00:43;;;;;;;4.90;2.20;;;14.40;99.90;;;;;;4980783;28;20225;-92
2021/04/17 06:03:16;;;;;;;3.43;2.27;;;14.40;99.90;;;;;;4980507;28;20305;-92
2021/04/17 06:05:47;;;;;;;7.77;2.20;;;14.30;99.90;;;;;;4982370;28;20222;-90
2021/04/17 06:08:18;;;;;;;8.60;2.00;;;14.30;99.90;;;;;;4979084;28;20313;-91
2021/04/17 06:10:48;;;;;;;2.10;1.80;;;14.30;99.90;;;;;;4977307;28;20305;-91
2021/04/17 06:13:18;;;;;;;3.87;1.90;;;14.20;99.90;;;;;;4978524;28;20214;-91
2021/04/17 06:15:49;;;;;;;4.73;2.00;;;14.20;99.90;;;;;;4980774;28;20644;-91
2021/04/17 06:18:21;;;;;;;3.57;2.40;;;14.10;99.90;;;;;;4980997;28;20215;-92
2021/04/17 06:20:53;;;;;;;3.90;2.03;;;14.10;99.90;;;;;;4982947;28;20209;-91
2021/04/17 06:23:23;;;;;;;3.03;1.80;;;14.00;99.90;;;;;;4983814;28;20578;-91
2021/04/17 06:25:55;;;;;;;4.37;2.10;;;13.90;99.90;;;;;;4984672;28;20213;-91
2021/04/17 06:28:26;;;;;;;4.13;1.80;;;13.90;99.90;;;;;;4982080;28;20234;-91
2021/04/17 06:31:00;;;;;;;6.90;2.10;;;13.80;99.90;;;;;;4998081;28;20205;-90
2021/04/17 06:33:32;;;;;;;4.40;2.10;;;13.80;99.90;;;;;;5008035;28;20233;-90
2021/04/17 06:36:06;;;;;;;5.13;1.97;;;13.70;99.90;;;;;;5008462;28;20237;-92
2021/04/17 06:38:37;;;;;;;3.13;2.10;;;13.70;99.90;;;;;;5011589;28;20229;-91
2021/04/17 06:41:09;;;;;;;4.60;2.17;;;13.60;99.90;;;;;;5008046;28;20245;-91
2021/04/17 06:43:43;;;;;;;4.20;2.47;;;13.60;99.90;;;;;;4987979;28;20540;-91
2021/04/17 06:46:16;;;;;;;4.53;2.37;;;13.50;99.90;;;;;;4983509;28;20231;-92
2021/04/17 06:48:50;;;;;;;6.00;2.77;;;13.40;99.90;;;;;;4981573;28;20203;-93
2021/04/17 06:51:23;;;;;;;3.27;2.10;;;13.40;99.90;;;;;;4983488;28;20233;-91
2021/04/17 06:53:55;;;;;;;3.70;2.40;;;13.30;99.90;;;;;;4986091;28;20302;-90
2021/04/17 06:56:26;;;;;;;4.47;2.67;;;13.20;99.90;;;;;;4984603;28;20234;-92
2021/04/17 06:58:59;;;;;;;3.97;2.13;;;13.20;99.90;;;;;;4983008;28;20238;-91
2021/04/17 07:01:30;;;;;;;4.20;2.10;;;13.10;99.90;;;;;;4983223;28;20213;-91
2021/04/17 07:04:07;;;;;;;2.80;1.80;;;13.10;99.90;;;;;;4983391;28;20294;-91
2021/04/17 07:06:38;;;;;;;3.03;1.40;;;13.10;99.90;;;;;;4982634;28;20301;-90
2021/04/17 07:09:09;;;;;;;1.63;1.53;;;12.90;99.90;;;;;;4979634;28;20215;-91
2021/04/17 07:11:40;;;;;;;2.30;1.77;;;13.00;99.90;;;;;;4981348;28;20207;-91
2021/04/17 07:14:16;;;;;;;2.80;1.53;;;12.90;99.90;;;;;;4981517;28;20215;-90
2021/04/17 07:16:59;;;;;;;2.00;1.70;;;12.90;99.90;;;;;;4981004;28;20289;-90
2021/04/17 07:19:56;;;;;;;4.67;1.70;;;12.90;99.90;;;;;;4981495;28;20214;-90
2021/04/17 07:22:29;;;;;;;6.80;1.80;;;12.80;99.90;;;;;;4981487;28;20231;-90
2021/04/17 07:25:17;;;;;;;1.67;1.50;;;12.80;99.90;;;;;;4970750;28;20236;-91
2021/04/17 07:27:50;;;;;;;4.17;1.47;;;12.70;99.90;;;;;;4979584;28;20238;-91
2021/04/17 07:30:33;;;;;;;4.07;1.87;;;12.70;99.90;;;;;;4980158;28;20656;-90
2021/04/17 07:33:06;;;;;;;2.70;1.50;;;12.60;99.90;;;;;;4980412;28;20219;-91
2021/04/17 07:35:41;;;;;;;2.93;1.60;;;12.50;99.90;;;;;;4980100;28;20710;-90
2021/04/17 07:38:18;;;;;;;4.07;1.80;;;12.40;99.90;;;;;;4982056;28;20214;-90
2021/04/17 07:41:04;;;;;;;3.93;1.80;;;12.30;99.90;;;;;;4983337;28;20210;-92
2021/04/17 07:43:48;;;;;;;3.97;1.60;;;12.30;99.90;;;;;;4982186;28;20211;-91
2021/04/17 07:46:22;;;;;;;4.40;1.90;;;12.30;99.90;;;;;;4984120;28;20741;-91
2021/04/17 07:48:57;;;;;;;3.87;1.70;;;12.20;99.90;;;;;;4980601;28;20260;-92
2021/04/17 07:51:58;;;;;;;4.30;1.40;;;12.20;99.90;;;;;;4967944;28;20207;-92
2021/04/17 07:54:30;;;;;;;3.10;1.73;;;12.20;99.90;;;;;;4970443;28;20231;-92
2021/04/17 07:57:11;;;;;;;3.00;1.60;;;12.10;99.90;;;;;;4971506;28;20200;-92
2021/04/17 08:02:43;;;;;;;2.03;1.67;;;11.90;99.90;;;;;;4973026;28;20622;-92
2021/04/17 08:05:17;;;;;;;3.27;1.77;;;11.90;99.90;;;;;;4980184;28;20212;-91
2021/04/17 08:07:54;;;;;;;3.03;1.67;;;11.80;99.90;;;;;;4979853;28;20195;-88
2021/04/17 08:10:32;;;;;;;2.40;1.60;;;11.70;99.90;;;;;;4977571;28;20655;-90
2021/04/17 08:13:07;;;;;;;3.03;1.77;;;11.60;99.90;;;;;;4972502;28;20203;-90
2021/04/17 08:15:38;;;;;;;3.83;1.53;;;11.60;99.90;;;;;;4967530;28;20618;-90
2021/04/17 08:18:10;;;;;;;2.27;1.80;;;11.60;99.90;;;;;;4963707;28;20215;-90
2021/04/17 08:20:42;;;;;;;2.73;1.70;;;11.50;99.90;;;;;;4961674;29;20657;-91
2021/04/17 08:23:14;;;;;;;5.37;1.70;;;11.50;99.90;;;;;;4962472;28;20299;-90
2021/04/17 08:25:46;;;;;;;3.50;1.60;;;11.40;99.90;;;;;;4961939;28;20279;-91
2021/04/17 08:28:22;;;;;;;2.63;1.57;;;11.40;99.90;;;;;;4961381;28;20703;-89
2021/04/17 08:31:12;;;;;;;2.23;1.37;;;11.30;99.90;;;;;;4962778;28;20211;-91
2021/04/17 08:33:46;;;;;;;4.40;1.57;;;11.20;99.90;;;;;;4963731;28;20270;-90
2021/04/17 08:36:33;;;;;;;3.97;1.80;;;11.20;99.90;;;;;;4977972;28;20234;-91
2021/04/17 08:39:06;;;;;;;5.63;1.70;;;11.20;99.90;;;;;;4987222;28;20215;-91
2021/04/17 08:41:41;;;;;;;2.57;1.50;;;11.10;99.90;;;;;;4980307;28;20231;-92
2021/04/17 08:44:33;;;;;;;4.30;1.60;;;11.10;99.90;;;;;;4966898;29;20211;-90
2021/04/17 08:47:05;;;;;;;2.90;1.60;;;11.10;99.90;;;;;;4966292;29;20211;-92
2021/04/17 08:49:38;;;;;;;4.80;1.70;;;11.00;99.90;;;;;;4968737;29;20279;-91
2021/04/17 08:52:23;;;;;;;6.43;1.70;;;11.00;99.90;;;;;;4968266;28;20223;-90
2021/04/17 08:55:20;;;;;;;4.20;1.53;;;10.90;99.90;;;;;;4967477;28;20299;-92
2021/04/17 08:58:13;;;;;;;4.07;1.67;;;10.90;99.90;;;;;;4958028;28;20238;-92
2021/04/17 09:00:47;;;;;;;4.53;1.80;;;10.80;99.90;;;;;;4965036;29;20218;-92
2021/04/17 09:03:39;;;;;;;3.87;1.50;;;10.80;99.90;;;;;;4963764;28;20208;-91
2021/04/17 09:06:32;;;;;;;2.77;1.60;;;10.80;99.90;;;;;;4964386;29;20214;-91
2021/04/17 09:09:37;;;;;;;3.37;1.40;;;10.70;99.90;;;;;;4961797;29;20208;-92
2021/04/17 09:12:22;;;;;;;3.83;1.70;;;10.70;99.90;;;;;;4958083;29;20203;-90
2021/04/17 09:14:55;;;;;;;3.30;1.53;;;10.70;99.90;;;;;;4964432;28;20222;-90
2021/04/17 09:17:58;;;;;;;2.63;1.80;;;10.60;99.90;;;;;;4967170;28;20224;-90
2021/04/17 09:20:38;;;;;;;3.27;1.90;;;10.60;99.90;;;;;;4907219;29;20217;-90
2021/04/17 09:23:32;;;;;;;3.17;1.83;;;10.60;99.90;;;;;;4903713;29;20213;-89
2021/04/17 09:26:07;;;;;;;4.83;2.00;;;10.50;99.90;;;;;;4961754;28;20217;-89
2021/04/17 09:28:43;;;;;;;2.80;1.90;;;10.50;99.90;;;;;;4983679;28;20214;-90
2021/04/17 09:34:11;;;;;;;3.20;1.87;;;10.40;99.90;;;;;;4981836;28;20222;-91
2021/04/17 09:36:43;;;;;;;3.07;2.57;;;10.40;99.90;;;;;;4962647;28;20267;-90
2021/04/17 09:39:28;;;;;;;4.30;2.10;;;10.30;99.90;;;;;;4982602;28;20238;-93
2021/04/17 09:42:00;;;;;;;3.53;2.00;;;10.30;99.90;;;;;;4983951;28;20245;-90
2021/04/17 09:44:59;;;;;;;2.97;1.80;;;10.30;99.90;;;;;;4987135;28;20202;-91
2021/04/17 09:47:40;;;;;;;2.43;1.70;;;10.30;99.90;;;;;;4990405;28;20206;-91
2021/04/17 09:50:24;;;;;;;5.13;2.00;;;10.20;99.90;;;;;;4989082;28;20298;-90
2021/04/17 09:52:56;;;;;;;2.13;1.80;;;10.20;99.90;;;;;;4983840;28;20555;-90
2021/04/17 09:55:27;;;;;;;5.80;1.87;;;10.20;99.90;;;;;;4982124;28;21001;-92
2021/04/17 09:57:58;;;;;;;3.53;1.97;;;10.10;99.90;;;;;;4982902;28;20213;-91
2021/04/17 10:00:32;;;;;;;3.43;2.00;;;10.10;99.90;;;;;;4981982;28;20218;-91
2021/04/17 10:03:03;;;;;;;2.53;1.83;;;10.10;99.90;;;;;;4979266;28;20210;-91
2021/04/17 10:05:35;;;;;;;2.20;1.30;;;10.00;99.90;;;;;;4980936;28;20301;-91
2021/04/17 10:08:07;;;;;;;2.67;1.60;;;10.00;99.90;;;;;;4983172;28;20370;-90
2021/04/17 10:10:38;;;;;;;3.40;1.80;;;10.00;99.90;;;;;;4991749;28;20269;-88
2021/04/17 10:13:09;;;;;;;3.40;1.70;;;9.90;99.90;;;;;;4999087;28;20207;-91
2021/04/17 10:15:53;;;;;;;2.30;1.53;;;9.90;99.90;;;;;;4998169;28;20233;-90
2021/04/17 10:18:27;;;;;;;2.27;1.60;;;9.90;99.90;;;;;;4992320;28;20213;-91
2021/04/17 10:20:59;;;;;;;5.30;1.87;;;9.90;99.90;;;;;;4989663;28;20252;-90
2021/04/17 10:23:29;;;;;;;1.83;1.33;;;9.90;99.90;;;;;;4988280;28;20218;-91
2021/04/17 10:26:05;;;;;;;1.73;1.50;;;9.90;99.90;;;;;;4991123;28;20210;-91
2021/04/17 10:28:37;;;;;;;3.30;1.50;;;9.90;99.90;;;;;;5000671;28;20204;-91
2021/04/17 10:31:19;;;;;;;3.87;1.40;;;9.90;99.90;;;;;;5000266;28;20281;-90
2021/04/17 10:33:52;;;;;;;2.20;1.60;;;9.90;99.90;;;;;;4990735;28;20199;-90
2021/04/17 10:36:24;;;;;;;2.10;1.57;;;9.80;99.90;;;;;;4983915;28;20241;-91
2021/04/17 10:39:04;;;;;;;3.20;1.63;;;9.80;99.90;;;;;;4980388;28;20281;-91
2021/04/17 10:41:36;;;;;;;4.27;1.67;;;9.80;99.90;;;;;;4968570;28;20207;-91
2021/04/17 10:44:12;;;;;;;3.20;1.70;;;9.80;99.90;;;;;;4960135;28;20231;-92
2021/04/17 10:46:47;;;;;;;3.70;2.03;;;9.70;99.90;;;;;;4960671;29;20208;-92
2021/04/17 10:49:28;;;;;;;2.80;1.93;;;9.70;99.90;;;;;;4961329;28;20219;-91
2021/04/17 10:52:00;;;;;;;3.10;2.10;;;9.70;99.90;;;;;;4959470;28;20672;-91
2021/04/17 10:54:31;;;;;;;2.97;1.70;;;9.60;99.90;;;;;;4960418;29;20211;-91
2021/04/17 10:57:04;;;;;;;2.40;1.87;;;9.60;99.90;;;;;;4960299;29;20263;-91
2021/04/17 10:59:55;;;;;;;2.00;1.87;;;9.60;99.90;;;;;;4959818;29;20220;-91
2021/04/17 11:02:29;;;;;;;2.97;1.90;;;9.50;99.90;;;;;;4960874;28;20708;-91
2021/04/17 11:05:00;;;;;;;5.63;2.00;;;9.50;99.90;;;;;;4964783;28;20227;-90
2021/04/17 11:07:34;;;;;;;4.50;2.30;;;9.40;99.90;;;;;;4969590;28;20267;-91
2021/04/17 11:10:07;;;;;;;4.50;2.30;;;9.30;99.90;;;;;;4968903;28;20523;-91
2021/04/17 11:12:39;;;;;;;2.57;2.20;;;9.20;99.90;;;;;;4966958;28;20207;-91
2021/04/17 11:15:20;;;;;;;6.00;2.60;;;9.10;99.90;;;;;;4983138;28;20225;-90
2021/04/17 11:18:14;;;;;;;4.67;2.50;;;9.00;99.90;;;;;;4986438;28;20245;-89
2021/04/17 11:20:57;;;;;;;6.70;2.80;;;9.00;99.90;;;;;;4986110;28;20294;-90
2021/04/17 11:23:47;;;;;;;5.57;3.10;;;8.90;99.90;;;;;;4983619;28;20207;-90
2021/04/17 11:26:19;;;;;;;3.53;2.63;;;8.90;99.90;;;;;;4984588;28;20281;-90
2021/04/17 11:28:52;;;;;;;3.57;3.00;;;8.90;99.90;;;;;;4983170;28;20214;-91
2021/04/17 11:31:24;;;;;;;5.43;2.70;;;8.90;99.90;;;;;;4980766;28;20262;-90
2021/04/17 11:33:59;;;;;;;4.33;2.67;;;8.90;99.90;;;;;;4980022;28;20210;-90
2021/04/17 11:36:32;;;;;;;4.17;2.80;;;8.80;99.90;;;;;;4980008;28;20656;-90
2021/04/17 11:39:02;;;;;;;3.20;2.40;;;8.80;99.90;;;;;;4980829;28;20214;-91
2021/04/17 11:41:32;;;;;;;3.63;2.30;;;8.80;99.90;;;;;;4979646;28;20207;-91
2021/04/17 11:44:01;;;;;;;2.97;1.90;;;8.80;99.90;;;;;;4979637;28;20241;-91
2021/04/17 11:46:33;;;;;;;2.50;2.17;;;8.70;99.90;;;;;;4979871;28;20245;-91
2021/04/17 11:49:06;;;;;;;4.40;2.23;;;8.70;99.90;;;;;;4979505;28;20215;-91
2021/04/17 11:51:36;;;;;;;3.67;2.50;;;8.70;99.90;;;;;;4977041;28;20207;-91
2021/04/17 11:54:08;;;;;;;3.50;1.90;;;8.70;99.90;;;;;;4980743;28;20211;-91
2021/04/17 11:56:38;;;;;;;3.97;2.03;;;8.70;99.90;;;;;;4978624;28;20231;-90
2021/04/17 11:59:08;;;;;;;4.00;2.47;;;8.60;99.90;;;;;;4980102;28;20215;-91
2021/04/17 12:01:38;;;;;;;4.40;2.30;;;8.70;99.90;;;;;;4982983;28;20210;-91
2021/04/17 12:04:14;;;;;;;6.63;2.23;;;8.60;99.90;;;;;;4980591;28;20211;-92
2021/04/17 12:06:49;;;;;;;4.43;2.13;;;8.60;99.90;;;;;;4983561;28;20262;-91
2021/04/17 12:09:20;;;;;;;5.83;2.40;;;8.60;99.90;;;;;;4979538;28;20702;-91
2021/04/17 12:11:51;;;;;;;2.63;2.13;;;8.60;99.90;;;;;;4977023;28;20207;-89
2021/04/17 12:14:21;;;;;;;3.23;2.07;;;8.60;99.90;;;;;;4976677;28;20246;-90
2021/04/17 12:16:51;;;;;;;3.07;2.00;;;8.60;99.90;;;;;;4977267;28;20292;-91
2021/04/17 12:19:24;;;;;;;3.27;2.07;;;8.60;99.90;;;;;;4978134;28;20272;-90
2021/04/17 12:21:55;;;;;;;2.33;2.10;;;8.60;99.90;;;;;;4977451;28;20667;-90
2021/04/17 12:24:25;;;;;;;3.43;2.43;;;8.50;99.90;;;;;;4977617;28;20234;-91
2021/04/17 12:26:56;;;;;;;3.70;1.90;;;8.50;99.90;;;;;;4977036;28;20240;-91
2021/04/17 12:29:27;;;;;;;2.20;2.00;;;8.50;99.90;;;;;;4977376;28;20211;-91
2021/04/17 12:31:58;;;;;;;2.90;1.90;;;8.40;99.90;;;;;;4976357;28;20686;-91
2021/04/17 12:34:30;;;;;;;11.13;1.80;;;8.40;99.90;;;;;;4977619;28;20667;-90
2021/04/17 12:37:01;;;;;;;6.70;2.00;;;8.30;99.90;;;;;;4977452;28;20274;-91
2021/04/17 12:39:32;;;;;;;2.37;2.00;;;8.30;99.90;;;;;;4978083;28;20226;-91
2021/04/17 12:42:03;;;;;;;2.60;1.87;;;8.30;99.90;;;;;;4976923;28;20627;-91
2021/04/17 12:44:34;;;;;;;2.43;1.90;;;8.30;99.90;;;;;;4967481;28;20236;-91
2021/04/17 12:47:05;;;;;;;3.73;2.00;;;8.40;99.90;;;;;;4967844;28;20203;-91
2021/04/17 12:49:36;;;;;;;3.67;2.13;;;8.30;99.90;;;;;;4978989;28;20211;-91
2021/04/17 12:52:08;;;;;;;2.37;1.90;;;8.30;99.90;;;;;;4977600;28;20188;-92
2021/04/17 12:54:39;;;;;;;3.00;1.90;;;8.20;99.90;;;;;;4969194;29;20226;-91
2021/04/17 12:57:10;;;;;;;3.70;1.57;;;8.20;99.90;;;;;;4959346;28;20235;-91
2021/04/17 12:59:40;;;;;;;3.57;1.90;;;8.20;99.90;;;;;;4959497;29;20238;-91
2021/04/17 13:02:10;;;;;;;2.20;1.73;;;8.20;99.90;;;;;;4961538;28;20607;-90
2021/04/17 13:04:43;;;;;;;5.30;1.73;;;8.20;99.90;;;;;;4966993;28;20215;-91
2021/04/17 13:07:13;;;;;;;2.33;1.70;;;8.20;99.90;;;;;;4961129;28;20215;-90
2021/04/17 13:09:44;;;;;;;3.60;1.97;;;8.20;99.90;;;;;;4973392;28;20242;-90
2021/04/17 13:12:15;;;;;;;2.77;1.80;;;8.10;99.90;;;;;;4977481;28;20272;-91
2021/04/17 13:14:46;;;;;;;1.70;1.60;;;8.10;99.90;;;;;;4978639;28;20257;-91
2021/04/17 13:17:17;;;;;;;3.17;2.00;;;8.10;99.90;;;;;;4979003;28;20233;-90
2021/04/17 13:19:50;;;;;;;2.97;1.77;;;8.10;99.90;;;;;;4982694;28;20211;-91
2021/04/17 13:22:21;;;;;;;3.17;1.90;;;8.10;99.90;;;;;;4984167;28;20538;-90
2021/04/17 13:24:52;;;;;;;1.73;1.60;;;8.10;99.90;;;;;;4982761;28;20241;-90
2021/04/17 13:27:22;;;;;;;3.20;2.37;;;8.10;99.90;;;;;;4984479;28;20211;-90
2021/04/17 13:29:53;;;;;;;1.97;1.70;;;8.20;99.90;;;;;;4980181;28;20242;-90